Forside
METAR-TAF:

METAR-TAF

Lufthavne :

Fairford, England

Breddekreds: 51-41N, længdekreds: 001-47W, højde: 87 m

Aktuelle vejr

Denne rapport blev lavet for 31 minutter siden, kl. 13:56 UTC
Vind 11 kt fra østnordøst med vindstød på up til 23 kt
Temperatur 11°C
Fugtighed 43%
Tryk 1031 hPa
Sigt 10 km eller mere
Brudte skyer i en højde af 4500 ft

METAR: EGVA 311356Z AUTO 07011G23KT 9999 BKN045 11/M01 A3044 RMK AO2 SLP313 T01051012 $

Tid: 15:27 (14:27 UTC)


TAF: fraværende

Vejrobservationer og prognoser fra mere end 4000 lufthavne (METAR og TAF).

De gule og røde prikker repræsenterer de meteorologiske stationer.

Flyt musen over at se navnet på stationen.

Så klik over at se vejr observationer og prognoser.

At skifte det kort: Klik på de grønne knapper med et sort kors for at zoome ind; på den grønne knap med en bindestreg for at zoome ud; eller på de grønne pile for tilstødende kort.


METAR-TAF: